Rawlins Municipal Harvey Field
KRWL : now visible

Airfield :











YOU CAN JOIN US ON...

 
LOGIN :

Register | Disclaimer

   EN    FR    IT 

 









Legend :    VFR   Marginal VFR   IFR   Intensive IFR   Very Intensive IFR
Visi :
Ceiling :
>= 8 km
>= 3000ft
5 to 8 km
1000 to 3000 ft
1500m to 5 km
500 to 1000 ft
800 to 1500m
200 to 500 ft
< 800m
< 200 ft
Symbols :   Thunderstorms  Fog  Heavy snow  Heavy precipitations  Wind > 20 kt







- Airport Elevation : 6813 ft


KRWL - Rawlins Municipal Harvey Field

CURRENT METAR :
  • 202353Z AUTO 07012G22KT 10SM OVC060 07/03 A2973 RMK AO2 SLP041 T00670028 10083 20061 55004

EXPIRED METARs :
  • 202253Z AUTO 07011KT 10SM SCT050 SCT060 BKN080 08/02 A2973 RMK AO2 SLP033 T00780022
  • 202153Z AUTO 05012KT 10SM BKN048 BKN055 OVC070 08/02 A2975 RMK AO2 SLP040 T00780022

TAF KRWL
Valid from the 21 at 00:00 until the 22 at 00:00 UTC


202320Z 2100/2124 05013KT P6SM VCSH BKN040
FM210100 05010KT 5SM -RA OVC015
FM210800 04012KT 4SM -SN OVC007
FM211400 03013KT 3SM -SN BR OVC007
KZDV FIR / North America



MET'MAP, your aeronautical weather chart ! - Copyright ORBIFLY December 2007 - Disclaimer

ORBIFLY MET'MAP TEAM :

Programming & Development : Alexandra Zaïnal
Concept & Development : Baudouin d'Aumeries
Co-Development & Prog : Marc-Olivier Méhu
Technical & hardware support : Manuel Goepfert

Contact : metmap@orbifly.com




SOURCES & CREDITS :

   NOAA       Earth
Advisory